createdAt,value
2018-07-01T00:03:46.514Z,41.10
2018-07-01T00:07:50.089Z,41.80
2018-07-01T00:12:04.790Z,40.60
2018-07-01T00:16:12.311Z,40.90
2018-07-01T00:20:16.596Z,42.10
2018-07-01T00:24:26.844Z,42.70
2018-07-01T00:28:33.107Z,42.00
2018-07-01T00:32:36.737Z,42.50
2018-07-01T00:36:40.484Z,42.20
2018-07-01T00:40:44.002Z,43.20
2018-07-01T00:44:47.640Z,42.30
2018-07-01T00:48:54.357Z,43.60
2018-07-01T00:52:58.096Z,43.40
2018-07-01T00:57:06.276Z,45.00
2018-07-01T01:01:10.805Z,43.00
2018-07-01T01:05:14.429Z,44.20
2018-07-01T01:09:18.158Z,43.30
2018-07-01T01:13:21.724Z,44.00
2018-07-01T01:17:25.335Z,44.20
2018-07-01T01:21:33.074Z,44.50
2018-07-01T01:25:36.654Z,45.10
2018-07-01T01:29:40.166Z,46.80
2018-07-01T01:33:44.105Z,45.50
2018-07-01T01:37:47.755Z,45.70
2018-07-01T01:41:55.546Z,47.40
2018-07-01T01:46:06.555Z,46.40
2018-07-01T01:50:14.606Z,46.20
2018-07-01T01:54:25.147Z,48.00
2018-07-01T01:58:40.765Z,47.00
2018-07-01T02:02:49.799Z,47.50
2018-07-01T02:06:56.092Z,48.10
2018-07-01T02:10:59.701Z,46.10
2018-07-01T02:15:06.822Z,50.90
2018-07-01T02:19:10.446Z,46.30
2018-07-01T02:23:19.275Z,46.80
2018-07-01T02:27:22.858Z,48.60
2018-07-01T02:31:26.427Z,48.10
2018-07-01T02:35:29.923Z,47.30
2018-07-01T02:39:33.621Z,48.20
2018-07-01T02:43:37.339Z,47.30
2018-07-01T02:47:40.942Z,47.70
2018-07-01T02:51:44.582Z,47.90
2018-07-01T02:55:48.184Z,48.00
2018-07-01T02:59:51.679Z,48.40
2018-07-01T03:04:07.670Z,49.10
2018-07-01T03:08:11.244Z,48.60
2018-07-01T03:12:14.813Z,49.60
2018-07-01T03:16:18.450Z,51.80
2018-07-01T03:20:25.990Z,50.50
2018-07-01T03:24:29.526Z,49.00
2018-07-01T03:28:33.154Z,49.10
2018-07-01T03:32:36.724Z,48.10
2018-07-01T03:36:40.414Z,51.00
2018-07-01T03:40:43.934Z,47.90
2018-07-01T03:44:47.542Z,48.20
2018-07-01T03:48:51.030Z,48.30
2018-07-01T03:52:54.701Z,48.60
2018-07-01T03:56:58.217Z,48.70
2018-07-01T04:01:01.846Z,48.80
2018-07-01T04:05:05.474Z,48.40
2018-07-01T04:09:11.751Z,49.50
2018-07-01T04:13:15.424Z,48.00
2018-07-01T04:17:19.009Z,48.60
2018-07-01T04:21:22.607Z,49.30
2018-07-01T04:25:26.170Z,49.60
2018-07-01T04:29:29.654Z,48.80
2018-07-01T04:33:33.302Z,47.70
2018-07-01T04:37:36.845Z,49.50
2018-07-01T04:41:40.503Z,47.60
2018-07-01T04:45:44.041Z,47.50
2018-07-01T04:49:47.559Z,50.40
2018-07-01T04:53:51.058Z,51.50
2018-07-01T04:57:54.635Z,48.70
2018-07-01T05:01:58.201Z,49.30
2018-07-01T05:06:01.674Z,49.30
2018-07-01T05:10:05.356Z,49.40
2018-07-01T05:14:09.042Z,47.60
2018-07-01T05:18:12.878Z,48.10
2018-07-01T05:22:16.391Z,48.80
2018-07-01T05:26:19.870Z,50.70
2018-07-01T05:30:23.714Z,48.70
2018-07-01T05:34:27.298Z,50.80
2018-07-01T05:38:30.838Z,48.70
2018-07-01T05:42:36.401Z,49.20
2018-07-01T05:46:40.199Z,52.30
2018-07-01T05:50:44.155Z,47.90
2018-07-01T05:54:47.659Z,47.70
2018-07-01T05:58:51.198Z,48.90
2018-07-01T06:02:54.779Z,48.50
2018-07-01T06:06:58.350Z,44.90
2018-07-01T06:15:06.685Z,43.10
2018-07-01T06:19:10.603Z,42.30
2018-07-01T06:23:14.150Z,44.20
2018-07-01T06:27:17.682Z,44.00
2018-07-01T06:31:21.208Z,40.50
2018-07-01T06:35:24.913Z,42.20
2018-07-01T06:39:28.442Z,41.10
2018-07-01T06:43:32.003Z,40.80
2018-07-01T06:47:35.526Z,37.90
2018-07-01T06:51:39.589Z,37.50
2018-07-01T06:55:43.155Z,37.70
2018-07-01T06:59:47.211Z,36.90
2018-07-01T07:03:50.798Z,33.90
2018-07-01T07:07:54.388Z,34.10
2018-07-01T07:11:57.870Z,32.50
2018-07-01T07:16:01.431Z,32.20
2018-07-01T07:20:05.215Z,32.50
2018-07-01T07:24:08.899Z,37.10
2018-07-01T07:28:15.886Z,33.60
2018-07-01T07:32:21.539Z,32.90
2018-07-01T07:36:26.180Z,32.00
2018-07-01T07:40:34.626Z,33.70
2018-07-01T07:44:39.419Z,32.20
2018-07-01T07:48:43.344Z,31.50
2018-07-01T07:52:47.001Z,30.50
2018-07-01T07:56:50.685Z,33.30
2018-07-01T08:00:57.656Z,32.30
2018-07-01T08:05:01.472Z,31.40
2018-07-01T08:09:08.487Z,29.80
2018-07-01T08:13:12.552Z,33.60
2018-07-01T08:21:19.599Z,30.60
2018-07-01T08:25:25.428Z,30.00
2018-07-01T08:29:31.037Z,30.20
2018-07-01T08:33:34.602Z,30.70
2018-07-01T08:37:38.376Z,31.00
2018-07-01T08:42:27.940Z,32.50
2018-07-01T08:46:31.598Z,29.80
2018-07-01T08:50:35.169Z,30.70
2018-07-01T08:54:39.627Z,31.00
2018-07-01T08:58:43.170Z,31.00
2018-07-01T09:02:46.781Z,30.10
2018-07-01T09:06:51.391Z,30.00
2018-07-01T09:10:56.346Z,31.00
2018-07-01T09:14:59.894Z,32.70
2018-07-01T09:19:03.526Z,35.60
2018-07-01T09:23:07.437Z,31.20
2018-07-01T09:27:11.538Z,29.90
2018-07-01T09:31:15.177Z,34.70
2018-07-01T09:35:18.862Z,29.70
2018-07-01T09:39:26.174Z,31.50
2018-07-01T09:43:30.729Z,32.10
2018-07-01T09:47:34.682Z,32.30
2018-07-01T09:51:40.523Z,29.80
2018-07-01T09:55:50.448Z,29.80
2018-07-01T09:59:54.230Z,29.30
2018-07-01T10:03:57.865Z,32.00
2018-07-01T10:08:01.602Z,34.10
2018-07-01T10:12:05.298Z,32.60
2018-07-01T10:16:08.805Z,33.10
2018-07-01T10:20:12.595Z,36.50
2018-07-01T10:24:17.429Z,31.40
2018-07-01T10:28:20.950Z,29.70
2018-07-01T10:32:24.899Z,30.30
2018-07-01T10:36:29.728Z,31.20
2018-07-01T10:40:33.600Z,29.60
2018-07-01T10:44:39.256Z,29.60
2018-07-01T10:48:43.038Z,30.30
2018-07-01T10:52:47.591Z,29.80
2018-07-01T10:56:51.151Z,34.60
2018-07-01T11:00:54.894Z,31.90
2018-07-01T11:05:02.463Z,30.90
2018-07-01T11:09:09.433Z,30.00
2018-07-01T11:13:13.095Z,29.70
2018-07-01T11:17:16.643Z,29.70
2018-07-01T11:21:20.317Z,32.80
2018-07-01T11:25:24.163Z,30.10
2018-07-01T11:29:28.342Z,30.10
2018-07-01T11:33:32.047Z,30.30
2018-07-01T11:37:35.674Z,30.80
2018-07-01T11:41:39.937Z,31.50
2018-07-01T11:45:43.606Z,33.90
2018-07-01T11:49:47.146Z,32.50
2018-07-01T11:53:50.678Z,32.40
2018-07-01T11:57:54.287Z,35.10
2018-07-01T12:01:57.962Z,34.10
2018-07-01T12:06:01.533Z,31.50
2018-07-01T12:10:06.124Z,30.60
2018-07-01T12:14:09.861Z,33.70
2018-07-01T12:18:13.383Z,31.70
2018-07-01T12:22:16.922Z,33.60
2018-07-01T12:26:20.622Z,32.30
2018-07-01T12:30:25.167Z,34.20
2018-07-01T12:34:30.652Z,32.80
2018-07-01T12:38:38.437Z,33.30
2018-07-01T12:42:42.046Z,33.40
2018-07-01T12:46:45.568Z,34.40
2018-07-01T12:50:49.172Z,33.40
2018-07-01T12:58:56.158Z,36.50
2018-07-01T13:02:59.677Z,34.00
2018-07-01T13:07:03.250Z,36.70
2018-07-01T13:11:06.827Z,33.00
2018-07-01T13:15:10.481Z,36.90
2018-07-01T13:19:14.146Z,34.30
2018-07-01T13:23:19.779Z,33.60
2018-07-01T13:27:23.340Z,34.40
2018-07-01T13:31:27.098Z,34.80
2018-07-01T13:35:30.792Z,33.50
2018-07-01T13:39:34.777Z,34.40
2018-07-01T13:43:38.647Z,34.20
2018-07-01T13:47:43.657Z,34.50
2018-07-01T13:51:47.195Z,36.10
2018-07-01T13:55:54.156Z,41.60
2018-07-01T13:59:58.391Z,34.90
2018-07-01T14:04:02.012Z,36.60
2018-07-01T14:08:05.596Z,33.00
2018-07-01T14:12:09.572Z,35.80
2018-07-01T14:16:14.142Z,33.20
2018-07-01T14:20:17.953Z,33.00
2018-07-01T14:28:31.770Z,33.60
2018-07-01T14:32:35.283Z,33.00
2018-07-01T14:36:38.928Z,31.80
2018-07-01T14:44:47.710Z,34.00
2018-07-01T14:48:53.331Z,32.20
2018-07-01T14:52:57.022Z,33.60
2018-07-01T14:57:00.557Z,33.00
2018-07-01T15:01:04.270Z,33.50
2018-07-01T15:05:08.927Z,34.90
2018-07-01T15:09:13.198Z,33.60
2018-07-01T15:13:16.747Z,34.60
2018-07-01T15:17:22.416Z,33.80
2018-07-01T15:21:27.062Z,38.10
2018-07-01T15:25:30.615Z,32.30
2018-07-01T15:29:36.402Z,33.60
2018-07-01T15:33:40.214Z,32.50
2018-07-01T15:37:44.191Z,35.70
2018-07-01T15:41:49.802Z,33.30
2018-07-01T15:45:55.758Z,33.10
2018-07-01T15:49:59.730Z,33.10
2018-07-01T15:54:03.416Z,32.00
2018-07-01T15:58:07.490Z,33.50
2018-07-01T16:02:12.254Z,37.00
2018-07-01T16:06:15.866Z,32.40
2018-07-01T16:10:19.441Z,33.90
2018-07-01T16:14:23.423Z,36.10
2018-07-01T16:18:27.246Z,32.60
2018-07-01T16:22:30.880Z,36.20
2018-07-01T16:26:39.964Z,32.50
2018-07-01T16:30:43.578Z,34.10
2018-07-01T16:34:48.163Z,33.90
2018-07-01T16:38:51.750Z,34.10
2018-07-01T16:42:55.724Z,34.80
2018-07-01T16:46:59.550Z,32.70
2018-07-01T16:51:03.145Z,32.10
2018-07-01T16:55:10.658Z,33.60
2018-07-01T16:59:14.384Z,32.80
2018-07-01T17:03:20.366Z,33.40
2018-07-01T17:07:24.002Z,36.00
2018-07-01T17:15:32.303Z,32.80
2018-07-01T17:19:35.835Z,34.40
2018-07-01T17:23:40.374Z,34.30
2018-07-01T17:27:44.902Z,32.30
2018-07-01T17:34:02.453Z,32.40
2018-07-01T17:38:06.243Z,34.40
2018-07-01T17:42:09.804Z,34.60
2018-07-01T17:46:13.469Z,33.90
2018-07-01T17:50:18.201Z,34.60
2018-07-01T17:54:25.659Z,33.70
2018-07-01T17:58:29.362Z,37.80
2018-07-01T18:02:32.914Z,37.40
2018-07-01T18:06:36.654Z,35.10
2018-07-01T18:10:40.297Z,35.50
2018-07-01T18:14:44.114Z,37.60
2018-07-01T18:18:47.745Z,35.40
2018-07-01T18:23:18.237Z,36.10
2018-07-01T18:26:55.383Z,35.60
2018-07-01T18:30:59.043Z,34.80
2018-07-01T18:35:03.721Z,36.80
2018-07-01T18:39:08.522Z,36.30
2018-07-01T18:43:12.070Z,35.10
2018-07-01T18:47:19.274Z,38.50
2018-07-01T18:51:23.359Z,35.30
2018-07-01T18:55:27.397Z,36.60
2018-07-01T18:59:30.958Z,37.30
2018-07-01T19:03:34.673Z,36.30
2018-07-01T19:07:38.214Z,36.60
2018-07-01T19:11:42.243Z,35.00
2018-07-01T19:15:46.408Z,35.50
2018-07-01T19:19:50.062Z,36.80
2018-07-01T19:23:54.737Z,36.60
2018-07-01T19:27:58.381Z,36.90
2018-07-01T19:32:01.929Z,35.90
2018-07-01T19:36:07.360Z,35.80
2018-07-01T19:40:12.087Z,35.90
2018-07-01T19:44:15.906Z,37.50
2018-07-01T19:48:20.497Z,35.30
2018-07-01T19:52:24.317Z,39.60
2018-07-01T19:56:31.060Z,36.40
2018-07-01T20:00:34.778Z,36.90
2018-07-01T20:04:39.418Z,38.80
2018-07-01T20:08:43.094Z,35.20
2018-07-01T20:12:46.604Z,36.40
2018-07-01T20:16:50.609Z,35.20
2018-07-01T20:20:55.322Z,36.50
2018-07-01T20:24:58.909Z,35.50
2018-07-01T20:29:02.639Z,35.70
2018-07-01T20:33:06.551Z,35.40
2018-07-01T20:37:12.285Z,36.30
2018-07-01T20:41:16.878Z,35.60
2018-07-01T20:45:20.366Z,37.50
2018-07-01T20:49:25.732Z,35.80
2018-07-01T20:53:29.331Z,39.70
2018-07-01T20:58:54.247Z,36.10
2018-07-01T21:02:57.805Z,35.40
2018-07-01T21:09:23.469Z,35.40
2018-07-01T21:17:30.333Z,37.10
2018-07-01T21:21:40.374Z,38.70
2018-07-01T21:25:43.939Z,36.40
2018-07-01T21:29:52.550Z,36.90
2018-07-01T21:33:57.182Z,36.80
2018-07-01T21:38:01.076Z,36.90
2018-07-01T21:42:04.710Z,37.50
2018-07-01T21:46:16.220Z,38.40
2018-07-01T21:50:19.854Z,41.30
2018-07-01T21:54:23.490Z,37.90
2018-07-01T21:58:27.238Z,40.80
2018-07-01T22:02:30.903Z,38.90
2018-07-01T22:06:39.874Z,38.70
2018-07-01T22:11:58.451Z,38.10
2018-07-01T22:16:08.624Z,39.40
2018-07-01T22:20:12.277Z,39.00
2018-07-01T22:24:19.891Z,39.30
2018-07-01T22:28:23.587Z,39.70
2018-07-01T22:32:27.179Z,39.40
2018-07-01T22:36:32.271Z,39.30
2018-07-01T22:40:35.831Z,39.60
2018-07-01T22:44:39.465Z,40.30
2018-07-01T22:48:43.035Z,40.50
2018-07-01T22:52:46.605Z,40.20
2018-07-01T22:56:50.143Z,40.40
2018-07-01T23:00:54.262Z,40.60
2018-07-01T23:05:04.438Z,42.00
2018-07-01T23:09:09.054Z,41.20
2018-07-01T23:13:24.910Z,41.40
2018-07-01T23:17:28.548Z,41.90
2018-07-01T23:21:32.070Z,42.00
2018-07-01T23:25:35.888Z,42.60
2018-07-01T23:29:39.505Z,42.40
2018-07-01T23:33:43.110Z,42.60
2018-07-01T23:37:47.731Z,42.80
2018-07-01T23:41:51.486Z,43.50
2018-07-01T23:45:55.244Z,43.10
2018-07-01T23:49:58.918Z,43.40
2018-07-01T23:54:02.486Z,43.60
2018-07-01T23:58:06.156Z,43.40
